Time;durP1;ratioP1;P1;durP2;ratioP2;P2;SDS_P1;SDS_P2;PMS_P1;PMS_P2;Temp;Humidity;BMP_temperature;BMP_pressure;BME280_temperature;BME280_humidity;BME280_pressure;Samples;Min_cycle;Max_cycle;Signal;HPM_P1;HPM_P2
2022/11/02 00:00:00;;;;;;;10.93;9.93;;;10.80;1.00;;;;;;6289193;28;20229;-54
2022/11/02 00:03:03;;;;;;;12.50;11.23;;;10.80;1.00;;;;;;6284371;28;20244;-54
2022/11/02 00:06:06;;;;;;;11.93;10.77;;;10.70;1.00;;;;;;6283758;28;20229;-54
2022/11/02 00:09:10;;;;;;;12.20;10.93;;;10.70;1.00;;;;;;6300608;28;20894;-55
2022/11/02 00:12:13;;;;;;;11.80;10.90;;;10.70;1.00;;;;;;6298915;28;20252;-53
2022/11/02 00:15:17;;;;;;;13.77;12.47;;;10.70;1.00;;;;;;6284494;28;20721;-54
2022/11/02 00:18:20;;;;;;;13.17;11.87;;;10.70;1.00;;;;;;6284637;28;20236;-54
2022/11/02 00:21:27;;;;;;;10.93;10.03;;;10.70;1.00;;;;;;6284397;28;20247;-54
2022/11/02 00:24:32;;;;;;;12.47;10.73;;;10.60;1.00;;;;;;6283073;28;20233;-54
2022/11/02 00:27:35;;;;;;;11.00;10.23;;;10.60;1.00;;;;;;6283381;28;20387;-54
2022/11/02 00:30:38;;;;;;;11.80;10.73;;;10.60;1.00;;;;;;6283570;28;20710;-54
2022/11/02 00:33:42;;;;;;;12.17;11.07;;;10.60;1.00;;;;;;6291109;28;20292;-54
2022/11/02 00:36:54;;;;;;;10.93;9.90;;;10.60;1.00;;;;;;6286711;28;20240;-54
2022/11/02 00:39:58;;;;;;;12.20;10.93;;;10.50;1.00;;;;;;6303194;28;20237;-55
2022/11/02 00:43:01;;;;;;;10.27;9.50;;;10.60;1.00;;;;;;6301339;28;20399;-54
2022/11/02 00:46:04;;;;;;;11.00;10.13;;;10.50;1.00;;;;;;6292060;28;20232;-53
2022/11/02 00:49:07;;;;;;;10.57;9.37;;;10.50;1.00;;;;;;6283791;28;20233;-55
2022/11/02 00:52:10;;;;;;;10.23;9.33;;;10.50;1.00;;;;;;6306497;28;20244;-53
2022/11/02 00:55:14;;;;;;;9.37;8.50;;;10.40;1.00;;;;;;6284496;28;20236;-54
2022/11/02 00:58:17;;;;;;;9.87;9.00;;;10.40;1.00;;;;;;6289657;28;20520;-54
2022/11/02 01:01:21;;;;;;;10.63;9.57;;;10.40;1.00;;;;;;6284078;28;20315;-54
2022/11/02 01:04:24;;;;;;;10.03;9.00;;;10.30;1.00;;;;;;6283658;28;20597;-54
2022/11/02 01:07:28;;;;;;;10.40;9.50;;;10.40;1.00;;;;;;6291516;28;20244;-53
2022/11/02 01:10:33;;;;;;;8.97;8.13;;;10.30;1.00;;;;;;6305351;28;20240;-54
2022/11/02 01:13:35;;;;;;;8.57;7.87;;;10.30;1.00;;;;;;6303050;28;20237;-54
2022/11/02 01:16:40;;;;;;;9.47;8.40;;;10.30;1.00;;;;;;6308578;28;20236;-53
2022/11/02 01:19:43;;;;;;;8.83;8.17;;;10.30;1.00;;;;;;6283442;28;20873;-55
2022/11/02 01:22:46;;;;;;;10.03;8.13;;;10.50;1.00;;;;;;6285593;28;20615;-54
2022/11/02 01:25:50;;;;;;;7.93;7.37;;;10.30;1.00;;;;;;6289619;28;20252;-53
2022/11/02 01:28:54;;;;;;;8.20;7.57;;;10.20;1.00;;;;;;6275918;28;20494;-56
2022/11/02 01:31:57;;;;;;;8.00;7.40;;;10.20;1.00;;;;;;6297727;28;20240;-53
2022/11/02 01:35:01;;;;;;;7.67;7.07;;;10.20;1.00;;;;;;6289743;28;20233;-53
2022/11/02 01:38:04;;;;;;;7.87;7.27;;;10.10;1.00;;;;;;6301594;28;20250;-55
2022/11/02 01:41:11;;;;;;;7.93;7.23;;;10.10;1.00;;;;;;6306259;28;20225;-54
2022/11/02 01:44:29;;;;;;;7.70;7.00;;;10.20;1.00;;;;;;6287769;28;20241;-55
2022/11/02 01:47:37;;;;;;;8.70;7.83;;;10.10;1.00;;;;;;6287251;28;20625;-53
2022/11/02 01:50:40;;;;;;;7.23;6.73;;;10.10;1.00;;;;;;6287320;28;20708;-53
2022/11/02 01:53:46;;;;;;;8.10;7.27;;;10.10;1.00;;;;;;6287289;28;20237;-51
2022/11/02 01:57:03;;;;;;;7.40;6.80;;;10.00;1.00;;;;;;6288044;28;20245;-54
2022/11/02 02:00:09;;;;;;;7.47;6.80;;;10.00;1.00;;;;;;6311533;28;20245;-55
2022/11/02 02:03:15;;;;;;;7.00;6.63;;;10.00;1.00;;;;;;6312653;27;20246;-53
2022/11/02 02:06:18;;;;;;;6.87;6.27;;;10.00;1.00;;;;;;6297464;28;20279;-54
2022/11/02 02:09:24;;;;;;;6.23;5.83;;;9.90;1.00;;;;;;6301212;28;20375;-53
2022/11/02 02:12:30;;;;;;;6.70;6.30;;;9.90;1.00;;;;;;6303185;28;20240;-53
2022/11/02 02:15:52;;;;;;;7.47;6.93;;;9.90;1.00;;;;;;6302280;28;20611;-53
2022/11/02 02:18:58;;;;;;;9.73;6.60;;;9.80;1.00;;;;;;6286044;28;20236;-55
2022/11/02 02:22:15;;;;;;;10.87;6.97;;;9.80;1.00;;;;;;6275053;28;20233;-53
2022/11/02 02:25:39;;;;;;;7.27;6.40;;;9.70;1.00;;;;;;6286178;28;20238;-55
2022/11/02 02:28:48;;;;;;;6.40;5.90;;;9.70;1.00;;;;;;6285672;28;20236;-55
2022/11/02 02:31:56;;;;;;;5.93;5.63;;;9.70;1.00;;;;;;6295143;28;20237;-54
2022/11/02 02:35:10;;;;;;;6.20;5.77;;;9.70;1.00;;;;;;6295559;28;20619;-54
2022/11/02 02:38:19;;;;;;;5.33;5.03;;;9.70;1.00;;;;;;6296209;28;20259;-54
2022/11/02 02:41:36;;;;;;;6.67;5.97;;;9.80;1.00;;;;;;6297225;28;20253;-54
2022/11/02 02:44:54;;;;;;;6.80;6.20;;;9.60;1.00;;;;;;6310759;28;20300;-54
2022/11/02 02:48:03;;;;;;;6.83;6.10;;;9.60;1.00;;;;;;6297556;28;20373;-55
2022/11/02 02:51:10;;;;;;;8.37;7.00;;;9.60;1.00;;;;;;6286123;28;20328;-55
2022/11/02 02:54:19;;;;;;;6.90;6.40;;;9.50;1.00;;;;;;6286190;28;20245;-53
2022/11/02 02:57:23;;;;;;;6.47;5.90;;;9.50;1.00;;;;;;6284198;28;20387;-54
2022/11/02 03:00:28;;;;;;;5.63;5.27;;;9.50;1.00;;;;;;6304231;28;20232;-54
2022/11/02 03:03:33;;;;;;;6.07;5.47;;;9.50;1.00;;;;;;6311039;28;20233;-54
2022/11/02 03:06:36;;;;;;;6.97;5.23;;;9.50;1.00;;;;;;6299342;28;20243;-54
2022/11/02 03:09:42;;;;;;;5.93;5.40;;;9.50;1.00;;;;;;6304457;28;20225;-53
2022/11/02 03:12:51;;;;;;;7.90;6.00;;;9.50;1.00;;;;;;6301755;28;20386;-53
2022/11/02 03:16:01;;;;;;;5.90;5.30;;;9.40;1.00;;;;;;6286380;28;20609;-53
2022/11/02 03:19:14;;;;;;;6.03;5.60;;;9.40;1.00;;;;;;6285428;28;20276;-53
2022/11/02 03:22:24;;;;;;;5.90;5.40;;;9.40;1.00;;;;;;6302765;28;20640;-54
2022/11/02 03:25:36;;;;;;;5.57;5.17;;;9.30;1.00;;;;;;6285774;28;20242;-54
2022/11/02 03:28:59;;;;;;;6.17;5.57;;;9.30;1.00;;;;;;6284528;28;20645;-54
2022/11/02 03:32:09;;;;;;;5.40;5.03;;;9.30;1.00;;;;;;6287603;28;20229;-54
2022/11/02 03:35:19;;;;;;;5.73;5.33;;;9.30;1.00;;;;;;6288980;28;20634;-53
2022/11/02 03:38:24;;;;;;;6.10;5.70;;;9.20;1.00;;;;;;6302509;28;20243;-53
2022/11/02 03:41:30;;;;;;;6.37;5.97;;;9.30;1.00;;;;;;6298481;28;20318;-54
2022/11/02 03:44:38;;;;;;;6.07;5.67;;;9.20;1.00;;;;;;6285161;28;20230;-53
2022/11/02 03:47:49;;;;;;;6.33;5.73;;;9.20;1.00;;;;;;6284665;28;20241;-54
2022/11/02 03:50:57;;;;;;;6.57;6.03;;;9.20;1.00;;;;;;6284455;28;20237;-53
2022/11/02 03:54:07;;;;;;;5.50;5.10;;;9.20;1.00;;;;;;6302219;28;20628;-55
2022/11/02 03:57:14;;;;;;;5.30;5.10;;;9.20;1.00;;;;;;6309478;28;20619;-54
2022/11/02 04:00:19;;;;;;;6.83;5.70;;;9.10;1.00;;;;;;6310665;28;20256;-54
2022/11/02 04:03:24;;;;;;;8.30;5.73;;;9.10;1.00;;;;;;6309541;28;20237;-53
2022/11/02 04:06:27;;;;;;;6.30;5.80;;;9.10;1.00;;;;;;6310157;28;20713;-53
2022/11/02 04:09:30;;;;;;;8.37;5.53;;;9.10;1.00;;;;;;6302787;28;20236;-54
2022/11/02 04:15:53;;;;;;;6.07;5.60;;;9.00;1.00;;;;;;6299042;28;20229;-53
2022/11/02 04:25:38;;;;;;;8.63;5.40;;;8.90;1.00;;;;;;6285588;28;20247;-54
2022/11/02 04:28:45;;;;;;;5.70;5.30;;;8.90;1.00;;;;;;6284993;28;20737;-55
2022/11/02 04:31:47;;;;;;;6.93;5.57;;;8.90;1.00;;;;;;6278720;28;20259;-54
2022/11/02 04:34:51;;;;;;;7.63;5.63;;;8.90;1.00;;;;;;6289222;28;20232;-54
2022/11/02 04:44:36;;;;;;;5.53;5.03;;;8.90;1.00;;;;;;6300112;28;20329;-54
2022/11/02 04:47:39;;;;;;;6.57;5.57;;;8.80;1.00;;;;;;6290421;28;20272;-53
2022/11/02 04:50:43;;;;;;;5.57;5.07;;;8.80;1.00;;;;;;6295751;28;20767;-55
2022/11/02 04:53:46;;;;;;;7.70;5.07;;;8.80;1.00;;;;;;6293565;28;20237;-54
2022/11/02 04:56:49;;;;;;;5.87;5.40;;;8.80;1.00;;;;;;6300482;28;20389;-54
2022/11/02 04:59:52;;;;;;;6.70;4.77;;;8.80;1.00;;;;;;6303529;28;20236;-52
2022/11/02 05:02:54;;;;;;;5.37;4.90;;;8.80;1.00;;;;;;6296881;28;20233;-54
2022/11/02 05:05:59;;;;;;;6.87;5.10;;;8.80;1.00;;;;;;6307933;28;20235;-54
2022/11/02 05:09:02;;;;;;;11.20;5.20;;;8.70;1.00;;;;;;6296129;28;20221;-53
2022/11/02 05:12:05;;;;;;;11.77;5.20;;;8.70;1.00;;;;;;6298122;28;20402;-55
2022/11/02 05:15:09;;;;;;;6.13;4.80;;;8.80;1.00;;;;;;6297623;28;20690;-54
2022/11/02 05:18:12;;;;;;;5.17;4.77;;;8.80;1.00;;;;;;6305646;28;20592;-55
2022/11/02 05:21:22;;;;;;;6.43;4.73;;;8.80;1.00;;;;;;6293081;28;20245;-54
2022/11/02 05:24:25;;;;;;;5.40;4.90;;;8.70;1.00;;;;;;6302751;28;20233;-53
2022/11/02 05:27:28;;;;;;;4.90;4.57;;;8.70;1.00;;;;;;6297950;28;20742;-53
2022/11/02 05:30:30;;;;;;;10.13;4.97;;;9.00;1.00;;;;;;6301289;28;20397;-53
2022/11/02 05:33:34;;;;;;;9.17;5.00;;;8.70;1.00;;;;;;6300868;28;20646;-54
2022/11/02 05:36:38;;;;;;;6.80;4.80;;;8.70;1.00;;;;;;6303002;28;20234;-54
2022/11/02 05:39:41;;;;;;;6.43;4.70;;;8.70;1.00;;;;;;6297562;28;20772;-55
2022/11/02 05:42:49;;;;;;;8.67;4.83;;;8.70;1.00;;;;;;6298166;28;20240;-54
2022/11/02 05:45:54;;;;;;;7.00;4.60;;;8.70;1.00;;;;;;6291998;28;20263;-54
2022/11/02 05:48:56;;;;;;;7.87;4.80;;;8.60;1.00;;;;;;6305835;28;20236;-55
2022/11/02 05:52:01;;;;;;;5.93;4.60;;;8.60;1.00;;;;;;6295640;28;20237;-54
2022/11/02 05:55:05;;;;;;;6.30;4.90;;;8.60;1.00;;;;;;6307067;28;20225;-53
2022/11/02 05:58:08;;;;;;;8.33;5.10;;;8.60;1.00;;;;;;6302770;28;20231;-54
2022/11/02 06:01:11;;;;;;;5.77;5.10;;;8.50;1.00;;;;;;6302788;28;20376;-54
2022/11/02 06:04:15;;;;;;;6.63;5.07;;;8.50;1.00;;;;;;6306575;28;20240;-54
2022/11/02 06:07:19;;;;;;;7.17;4.83;;;8.50;1.00;;;;;;6301153;28;20249;-54
2022/11/02 06:10:22;;;;;;;11.20;5.00;;;8.50;1.00;;;;;;6304016;28;20236;-54
2022/11/02 06:13:25;;;;;;;8.87;5.90;;;8.50;1.00;;;;;;6312207;28;20388;-54
2022/11/02 06:16:28;;;;;;;5.90;5.37;;;8.80;1.00;;;;;;6304657;28;20402;-53
2022/11/02 06:19:31;;;;;;;5.60;5.00;;;8.50;1.00;;;;;;6306212;28;20239;-55
2022/11/02 06:22:40;;;;;;;6.83;5.17;;;8.50;1.00;;;;;;6302804;28;20241;-54
2022/11/02 06:25:43;;;;;;;6.43;5.60;;;8.60;1.00;;;;;;6298536;28;20256;-54
2022/11/02 06:28:46;;;;;;;10.27;4.90;;;8.60;1.00;;;;;;6301428;28;20232;-54
2022/11/02 06:31:49;;;;;;;9.03;5.03;;;8.70;1.00;;;;;;6293135;28;20229;-54
2022/11/02 06:34:51;;;;;;;10.57;5.50;;;8.60;1.00;;;;;;6296609;28;20229;-54
2022/11/02 06:37:56;;;;;;;5.40;5.00;;;8.60;1.00;;;;;;6303731;28;20418;-55
2022/11/02 06:41:02;;;;;;;9.53;5.07;;;8.70;1.00;;;;;;6293117;28;20315;-57
2022/11/02 06:44:05;;;;;;;5.57;4.60;;;8.70;1.00;;;;;;6303107;28;20237;-54
2022/11/02 06:47:08;;;;;;;11.87;5.27;;;8.70;1.00;;;;;;6306921;28;20255;-54
2022/11/02 06:50:11;;;;;;;8.57;4.50;;;8.80;1.00;;;;;;6289355;28;20248;-53
2022/11/02 06:53:15;;;;;;;6.33;5.27;;;8.90;1.00;;;;;;6286113;28;20632;-54
2022/11/02 06:56:18;;;;;;;6.10;4.63;;;8.90;1.00;;;;;;6294063;28;20225;-52
2022/11/02 06:59:21;;;;;;;8.70;4.60;;;9.00;1.00;;;;;;6290549;28;20371;-54
2022/11/02 07:02:24;;;;;;;5.97;4.97;;;9.00;1.00;;;;;;6299355;28;20757;-53
2022/11/02 07:05:27;;;;;;;6.17;4.83;;;9.10;1.00;;;;;;6303294;28;20225;-53
2022/11/02 07:08:31;;;;;;;5.33;4.83;;;9.10;1.00;;;;;;6292612;28;20622;-55
2022/11/02 07:11:34;;;;;;;11.00;4.70;;;9.20;1.00;;;;;;6307073;28;20244;-53
2022/11/02 07:14:37;;;;;;;8.47;4.73;;;9.20;1.00;;;;;;6296783;28;20247;-56
2022/11/02 07:17:40;;;;;;;7.63;4.43;;;9.30;1.00;;;;;;6303870;28;20244;-55
2022/11/02 07:20:43;;;;;;;10.90;4.87;;;9.30;1.00;;;;;;6291987;28;20239;-54
2022/11/02 07:23:47;;;;;;;6.47;4.93;;;9.30;1.00;;;;;;6295364;28;20240;-54
2022/11/02 07:26:50;;;;;;;8.07;4.73;;;9.30;1.00;;;;;;6298171;28;20252;-54
2022/11/02 07:29:53;;;;;;;8.30;5.63;;;9.40;1.00;;;;;;6300270;28;20244;-55
2022/11/02 07:32:55;;;;;;;12.27;4.73;;;9.50;1.00;;;;;;6295355;28;20247;-60
2022/11/02 07:36:02;;;;;;;10.20;4.13;;;9.60;1.00;;;;;;6300935;28;20541;-53
2022/11/02 07:39:06;;;;;;;6.00;3.97;;;9.80;1.00;;;;;;6305920;28;20635;-65
2022/11/02 07:42:09;;;;;;;8.67;5.30;;;9.90;1.00;;;;;;6299552;28;20602;-54
2022/11/02 07:45:12;;;;;;;11.63;5.10;;;9.90;1.00;;;;;;6297744;28;20243;-55
2022/11/02 07:48:15;;;;;;;7.77;4.40;;;10.00;1.00;;;;;;6284856;28;20237;-54
2022/11/02 07:51:18;;;;;;;8.27;4.50;;;10.20;1.00;;;;;;6299469;28;20397;-54
2022/11/02 07:54:22;;;;;;;10.33;3.60;;;10.30;1.00;;;;;;6297048;28;20436;-53
2022/11/02 07:57:25;;;;;;;6.53;4.43;;;10.50;1.00;;;;;;6288990;28;20496;-53
2022/11/02 08:00:30;;;;;;;7.03;4.20;;;10.70;1.00;;;;;;6290292;28;20246;-54
2022/11/02 08:03:33;;;;;;;5.50;3.47;;;10.90;1.00;;;;;;6292825;28;20501;-53
2022/11/02 08:06:36;;;;;;;4.90;3.90;;;11.10;1.00;;;;;;6297681;28;20228;-54
2022/11/02 08:09:40;;;;;;;6.33;4.00;;;11.30;1.00;;;;;;6294534;28;20228;-53
2022/11/02 08:12:43;;;;;;;5.53;4.20;;;11.50;1.00;;;;;;6286661;28;20259;-55
2022/11/02 08:15:49;;;;;;;4.17;3.77;;;11.60;1.00;;;;;;6300684;28;20239;-55
2022/11/02 08:18:52;;;;;;;5.43;4.00;;;11.70;1.00;;;;;;6290463;28;20229;-55
2022/11/02 08:21:55;;;;;;;4.53;4.00;;;11.60;1.00;;;;;;6297031;28;20394;-54
2022/11/02 08:24:59;;;;;;;7.23;3.50;;;11.70;1.00;;;;;;6304574;28;20235;-54
2022/11/02 08:28:02;;;;;;;5.07;4.00;;;11.70;1.00;;;;;;6301349;28;20499;-53
2022/11/02 08:31:14;;;;;;;6.23;3.70;;;11.70;1.00;;;;;;6293385;28;20237;-54
2022/11/02 08:34:16;;;;;;;5.00;4.20;;;11.80;1.00;;;;;;6283228;28;20638;-58
2022/11/02 08:37:19;;;;;;;7.73;4.33;;;11.90;1.00;;;;;;6297241;28;20243;-54
2022/11/02 08:40:31;;;;;;;8.43;4.77;;;11.80;1.00;;;;;;6307674;28;20698;-53
2022/11/02 08:43:34;;;;;;;8.33;4.03;;;11.80;1.00;;;;;;6287667;28;20606;-53
2022/11/02 08:46:37;;;;;;;9.17;3.87;;;11.90;1.00;;;;;;6298656;28;20326;-58
2022/11/02 08:49:40;;;;;;;4.10;3.30;;;11.90;1.00;;;;;;6296224;28;20614;-53
2022/11/02 08:52:43;;;;;;;8.53;4.13;;;11.90;1.00;;;;;;6286073;28;20244;-53
2022/11/02 08:55:47;;;;;;;8.47;3.70;;;11.90;1.00;;;;;;6294965;28;20258;-54
2022/11/02 08:58:50;;;;;;;5.20;3.77;;;11.80;1.00;;;;;;6298327;28;20233;-54
2022/11/02 09:01:53;;;;;;;6.27;4.43;;;11.70;1.00;;;;;;6296923;28;20232;-53
2022/11/02 09:04:56;;;;;;;8.03;7.17;;;11.70;1.00;;;;;;6296515;28;20358;-54
2022/11/02 09:08:05;;;;;;;5.77;3.77;;;11.70;1.00;;;;;;6295655;28;20737;-55
2022/11/02 09:11:10;;;;;;;5.03;3.67;;;11.70;1.00;;;;;;6297620;28;20229;-54
2022/11/02 09:14:13;;;;;;;4.07;3.40;;;11.70;1.00;;;;;;6302018;28;20697;-53
2022/11/02 09:17:16;;;;;;;10.93;3.87;;;11.80;1.00;;;;;;6300718;28;20286;-55
2022/11/02 09:20:20;;;;;;;5.50;3.67;;;12.00;1.00;;;;;;6303548;28;20239;-53
2022/11/02 09:23:23;;;;;;;10.43;4.13;;;12.10;1.00;;;;;;6297767;28;20245;-54
2022/11/02 09:26:27;;;;;;;10.37;3.97;;;12.30;1.00;;;;;;6299718;28;20237;-54
2022/11/02 09:29:30;;;;;;;9.03;4.30;;;12.40;1.00;;;;;;6299401;28;20240;-54
2022/11/02 09:32:33;;;;;;;7.30;3.60;;;12.60;1.00;;;;;;6290414;28;20232;-54
2022/11/02 09:35:40;;;;;;;8.87;3.90;;;12.80;1.00;;;;;;6292013;28;20252;-53
2022/11/02 09:38:43;;;;;;;6.77;3.63;;;13.00;1.00;;;;;;6298828;28;20240;-54
2022/11/02 09:41:52;;;;;;;4.87;3.67;;;13.10;1.00;;;;;;6294228;28;20577;-53
2022/11/02 09:45:00;;;;;;;8.67;4.00;;;13.30;1.00;;;;;;6291197;28;20232;-54
2022/11/02 09:48:11;;;;;;;7.53;3.63;;;13.40;1.00;;;;;;6300993;28;20650;-55
2022/11/02 09:51:35;;;;;;;9.67;3.40;;;13.50;1.00;;;;;;6299335;28;20249;-56
2022/11/02 09:54:42;;;;;;;5.87;2.93;;;13.60;1.00;;;;;;6303459;28;20260;-54
2022/11/02 09:57:53;;;;;;;8.70;3.93;;;13.70;1.00;;;;;;6305825;28;20775;-54
2022/11/02 10:00:59;;;;;;;6.00;3.47;;;13.80;1.00;;;;;;6307192;28;20233;-54
2022/11/02 10:04:30;;;;;;;5.57;3.10;;;13.90;1.00;;;;;;6302430;28;20241;-54
2022/11/02 10:07:49;;;;;;;8.17;3.40;;;14.00;1.00;;;;;;6301587;28;20247;-54
2022/11/02 10:11:01;;;;;;;7.50;3.73;;;14.20;1.00;;;;;;6304296;28;20478;-54
2022/11/02 10:14:15;;;;;;;4.87;3.20;;;14.30;1.00;;;;;;6299911;28;20596;-53
2022/11/02 10:17:24;;;;;;;9.63;3.77;;;14.40;1.00;;;;;;6307963;28;20607;-55
2022/11/02 10:20:32;;;;;;;4.43;3.00;;;14.30;1.00;;;;;;6301242;28;20246;-54
2022/11/02 10:23:38;;;;;;;6.37;3.07;;;14.40;1.00;;;;;;6303802;28;20259;-56
2022/11/02 10:26:42;;;;;;;6.50;3.37;;;14.50;1.00;;;;;;6291654;28;20228;-56
2022/11/02 10:29:55;;;;;;;7.43;3.10;;;14.70;1.00;;;;;;6297253;28;20229;-54
2022/11/02 10:33:12;;;;;;;6.83;3.47;;;14.90;1.00;;;;;;6302781;28;20399;-53
2022/11/02 10:36:29;;;;;;;7.50;3.40;;;15.00;1.00;;;;;;6302414;28;20247;-55
2022/11/02 10:39:41;;;;;;;7.70;3.50;;;15.00;1.00;;;;;;6299633;28;20228;-53
2022/11/02 10:43:04;;;;;;;3.37;3.00;;;15.00;1.00;;;;;;6294752;28;20718;-54
2022/11/02 10:46:40;;;;;;;8.47;3.27;;;15.00;1.00;;;;;;6302390;28;20697;-54
2022/11/02 10:50:12;;;;;;;5.43;3.37;;;15.10;1.00;;;;;;6306664;27;20623;-55
2022/11/02 10:53:17;;;;;;;7.87;3.60;;;15.20;1.00;;;;;;6302309;28;20244;-53
2022/11/02 10:56:42;;;;;;;5.10;3.40;;;15.30;1.00;;;;;;6281427;28;20240;-54
2022/11/02 10:59:45;;;;;;;5.63;3.47;;;15.30;1.00;;;;;;6301650;28;20229;-54
2022/11/02 11:03:05;;;;;;;8.13;3.30;;;15.30;1.00;;;;;;6292167;28;20233;-55
2022/11/02 11:06:12;;;;;;;6.07;3.23;;;15.40;1.00;;;;;;6302719;28;20233;-54
2022/11/02 11:09:18;;;;;;;5.63;3.17;;;15.40;1.00;;;;;;6289123;28;20240;-55
2022/11/02 11:12:25;;;;;;;10.60;3.50;;;15.40;1.00;;;;;;6289351;28;20409;-56
2022/11/02 11:15:33;;;;;;;5.37;3.30;;;15.50;1.00;;;;;;6303972;28;20241;-54
2022/11/02 11:18:53;;;;;;;6.40;3.50;;;15.60;1.00;;;;;;6298781;28;20233;-54
2022/11/02 11:22:29;;;;;;;4.63;3.30;;;15.70;1.00;;;;;;6304433;28;20247;-54
2022/11/02 11:25:31;;;;;;;4.23;3.03;;;15.60;1.00;;;;;;6293640;28;20232;-54
2022/11/02 11:28:39;;;;;;;6.67;3.13;;;15.70;1.00;;;;;;6301256;28;20808;-54
2022/11/02 11:31:42;;;;;;;7.80;2.87;;;15.70;1.00;;;;;;6294946;28;20369;-55
2022/11/02 11:34:55;;;;;;;5.20;3.10;;;15.70;1.00;;;;;;6309513;28;20619;-54
2022/11/02 11:38:02;;;;;;;6.63;3.37;;;15.60;1.00;;;;;;6302657;28;20479;-54
2022/11/02 11:41:05;;;;;;;7.53;3.23;;;15.40;1.00;;;;;;6299367;28;20228;-61
2022/11/02 11:44:13;;;;;;;6.10;3.27;;;15.30;1.00;;;;;;6294053;28;20614;-54
2022/11/02 11:47:26;;;;;;;8.53;3.00;;;15.20;1.00;;;;;;6309266;27;20285;-54
2022/11/02 11:50:30;;;;;;;4.23;3.37;;;15.20;1.00;;;;;;6297610;28;20244;-54
2022/11/02 11:53:37;;;;;;;6.63;3.50;;;15.20;1.00;;;;;;6304426;28;20775;-56
2022/11/02 11:56:40;;;;;;;4.20;3.30;;;15.10;1.00;;;;;;6295275;28;20243;-55
2022/11/02 11:59:48;;;;;;;5.00;3.27;;;15.00;1.00;;;;;;6301331;28;20634;-55
2022/11/02 12:03:02;;;;;;;5.53;3.00;;;15.00;1.00;;;;;;6298162;28;20245;-55
2022/11/02 12:06:18;;;;;;;4.77;2.90;;;15.00;1.00;;;;;;6298933;28;20800;-56
2022/11/02 12:09:25;;;;;;;6.03;3.33;;;15.00;1.00;;;;;;6303550;28;20260;-55
2022/11/02 12:12:43;;;;;;;10.67;3.27;;;15.00;1.00;;;;;;6300590;28;20251;-55
2022/11/02 12:16:00;;;;;;;4.60;3.00;;;15.00;1.00;;;;;;6307701;28;20228;-55
2022/11/02 12:19:18;;;;;;;7.70;3.30;;;15.00;1.00;;;;;;6295277;28;20623;-55
2022/11/02 12:22:34;;;;;;;5.63;3.23;;;15.10;1.00;;;;;;6299465;28;20233;-54
2022/11/02 12:25:44;;;;;;;5.70;3.67;;;15.30;1.00;;;;;;6308176;28;20225;-54
2022/11/02 12:29:07;;;;;;;6.10;3.13;;;15.40;1.00;;;;;;6288827;28;20247;-55
2022/11/02 12:32:21;;;;;;;6.63;3.83;;;15.40;1.00;;;;;;6297770;28;20264;-53
2022/11/02 12:35:51;;;;;;;2.80;2.53;;;15.50;1.00;;;;;;6291993;28;20244;-54
2022/11/02 12:39:07;;;;;;;5.37;2.97;;;15.60;1.00;;;;;;6303511;28;20724;-55
2022/11/02 12:42:21;;;;;;;4.77;3.10;;;15.60;1.00;;;;;;6298192;28;20276;-54
2022/11/02 12:45:41;;;;;;;3.47;2.70;;;15.80;1.00;;;;;;6291590;28;20450;-54
2022/11/02 12:48:56;;;;;;;3.50;2.70;;;16.00;1.00;;;;;;6300479;28;20322;-54
2022/11/02 12:52:08;;;;;;;6.57;2.90;;;16.00;1.00;;;;;;6278486;28;20237;-53
2022/11/02 12:55:17;;;;;;;5.33;2.87;;;16.10;1.00;;;;;;6300767;28;20252;-54
2022/11/02 12:58:24;;;;;;;2.80;2.40;;;16.10;1.00;;;;;;6287750;28;20237;-55
2022/11/02 13:01:35;;;;;;;4.80;2.50;;;15.90;1.00;;;;;;6297043;28;20228;-54
2022/11/02 13:04:45;;;;;;;4.30;2.70;;;15.80;1.00;;;;;;6299638;28;20522;-52
2022/11/02 13:07:55;;;;;;;5.93;2.97;;;15.80;1.00;;;;;;6288119;28;20236;-55
2022/11/02 13:11:04;;;;;;;5.13;2.93;;;15.80;1.00;;;;;;6307012;28;20606;-56
2022/11/02 13:14:13;;;;;;;7.30;2.73;;;15.90;1.00;;;;;;6285517;28;20256;-53
2022/11/02 13:17:22;;;;;;;4.00;2.47;;;15.80;1.00;;;;;;6295526;28;20467;-54
2022/11/02 13:20:29;;;;;;;3.60;2.50;;;15.80;1.00;;;;;;6294782;28;20337;-55
2022/11/02 13:23:38;;;;;;;5.23;2.67;;;15.80;1.00;;;;;;6303882;28;20247;-54
2022/11/02 13:26:43;;;;;;;4.83;2.80;;;15.90;1.00;;;;;;6299617;28;20225;-55
2022/11/02 13:29:49;;;;;;;3.93;3.07;;;15.90;1.00;;;;;;6302118;28;20237;-55
2022/11/02 13:32:59;;;;;;;5.10;3.03;;;15.80;1.00;;;;;;6297586;28;20264;-54
2022/11/02 13:36:02;;;;;;;5.73;2.80;;;15.80;1.00;;;;;;6299197;28;20383;-54
2022/11/02 13:39:15;;;;;;;2.67;2.57;;;15.70;1.00;;;;;;6304553;28;20240;-54
2022/11/02 13:42:43;;;;;;;6.80;3.13;;;15.80;1.00;;;;;;6288802;28;20245;-54
2022/11/02 13:46:23;;;;;;;5.93;2.80;;;15.50;1.00;;;;;;6290399;28;20228;-54
2022/11/02 13:49:30;;;;;;;4.40;2.97;;;15.50;1.00;;;;;;6294441;28;20233;-53
2022/11/02 13:52:39;;;;;;;3.17;2.97;;;15.50;1.00;;;;;;6296416;28;20237;-55
2022/11/02 13:55:46;;;;;;;5.60;2.67;;;15.60;1.00;;;;;;6287411;28;20327;-51
2022/11/02 13:58:57;;;;;;;5.20;3.40;;;15.50;1.00;;;;;;6307974;28;20232;-53
2022/11/02 14:02:02;;;;;;;5.57;3.03;;;15.60;1.00;;;;;;6295535;28;20241;-55
2022/11/02 14:05:07;;;;;;;3.70;2.70;;;15.70;1.00;;;;;;6304137;28;20308;-54
2022/11/02 14:08:16;;;;;;;4.53;3.00;;;15.70;1.00;;;;;;6298132;28;20237;-56
2022/11/02 14:11:32;;;;;;;3.00;2.70;;;15.70;1.00;;;;;;6297407;28;20243;-55
2022/11/02 14:14:36;;;;;;;5.40;3.13;;;15.70;1.00;;;;;;6296261;28;20240;-54
2022/11/02 14:18:02;;;;;;;3.93;2.80;;;15.60;1.00;;;;;;6297215;28;20232;-54
2022/11/02 14:21:40;;;;;;;3.13;2.57;;;15.50;1.00;;;;;;6295934;28;20729;-54
2022/11/02 14:25:16;;;;;;;6.77;3.00;;;15.40;1.00;;;;;;6294893;28;20238;-54
2022/11/02 14:28:41;;;;;;;5.23;3.00;;;15.30;1.00;;;;;;6301611;28;20241;-59
2022/11/02 14:31:55;;;;;;;3.17;2.97;;;15.20;1.00;;;;;;6292508;28;20717;-54
2022/11/02 14:35:10;;;;;;;8.03;2.93;;;15.00;1.00;;;;;;6291978;28;20467;-54
2022/11/02 14:38:44;;;;;;;5.93;2.70;;;15.10;1.00;;;;;;6293699;28;20241;-53
2022/11/02 14:42:15;;;;;;;7.43;3.53;;;14.90;1.00;;;;;;6303826;28;20613;-55
2022/11/02 14:45:28;;;;;;;5.73;3.20;;;14.90;1.00;;;;;;6302455;28;20233;-54
2022/11/02 14:48:44;;;;;;;7.17;3.37;;;14.80;1.00;;;;;;6293869;28;20243;-56
2022/11/02 14:51:57;;;;;;;6.43;2.83;;;14.80;1.00;;;;;;6288988;28;20404;-54
2022/11/02 14:55:09;;;;;;;4.67;2.80;;;14.80;1.00;;;;;;6294299;28;20716;-54
2022/11/02 14:58:19;;;;;;;7.03;3.03;;;14.80;1.00;;;;;;6303849;28;20740;-54
2022/11/02 15:01:22;;;;;;;3.30;3.00;;;14.70;1.00;;;;;;6310611;28;20232;-54
2022/11/02 15:04:28;;;;;;;4.03;2.70;;;14.70;1.00;;;;;;6305226;28;20743;-55
2022/11/02 15:07:35;;;;;;;3.70;3.20;;;14.60;1.00;;;;;;6303778;28;20452;-55
2022/11/02 15:10:42;;;;;;;3.40;3.20;;;14.50;1.00;;;;;;6300868;28;20265;-54
2022/11/02 15:13:47;;;;;;;4.17;3.50;;;14.50;1.00;;;;;;6299937;28;20241;-54
2022/11/02 15:16:53;;;;;;;4.97;2.90;;;14.40;1.00;;;;;;6301678;28;20245;-54
2022/11/02 15:20:26;;;;;;;3.77;2.60;;;14.40;1.00;;;;;;6291347;28;20233;-55
2022/11/02 15:23:30;;;;;;;3.63;3.17;;;14.30;1.00;;;;;;6289641;28;20745;-54
2022/11/02 15:26:41;;;;;;;4.37;3.00;;;14.30;1.00;;;;;;6308009;28;20323;-55
2022/11/02 15:29:44;;;;;;;3.43;2.90;;;14.20;1.00;;;;;;6297301;28;20233;-54
2022/11/02 15:32:52;;;;;;;3.00;2.80;;;14.10;1.00;;;;;;6296903;28;20236;-56
2022/11/02 15:36:06;;;;;;;4.17;3.13;;;14.10;1.00;;;;;;6298239;28;20270;-54
2022/11/02 15:39:11;;;;;;;4.77;2.90;;;14.00;1.00;;;;;;6306354;28;20228;-55
2022/11/02 15:42:21;;;;;;;4.73;3.83;;;14.00;1.00;;;;;;6300175;28;20232;-53
2022/11/02 15:45:36;;;;;;;3.50;3.20;;;13.80;1.00;;;;;;6297843;28;20244;-54
2022/11/02 15:49:11;;;;;;;3.70;3.40;;;13.80;1.00;;;;;;6305636;28;20260;-54
2022/11/02 15:52:26;;;;;;;5.07;3.63;;;13.70;1.00;;;;;;6294637;28;20241;-55
2022/11/02 15:55:38;;;;;;;3.83;3.17;;;13.70;1.00;;;;;;6285625;28;20245;-56
2022/11/02 15:58:56;;;;;;;7.03;3.43;;;13.60;1.00;;;;;;6294910;28;20241;-54
2022/11/02 16:02:18;;;;;;;5.17;3.33;;;13.60;1.00;;;;;;6292160;28;20255;-54
2022/11/02 16:05:23;;;;;;;4.43;3.13;;;13.60;1.00;;;;;;6306058;28;20315;-54
2022/11/02 16:08:34;;;;;;;3.80;3.23;;;13.50;1.00;;;;;;6308233;28;20702;-54
2022/11/02 16:11:37;;;;;;;5.90;3.47;;;13.40;1.00;;;;;;6302791;28;20243;-58
2022/11/02 16:14:40;;;;;;;6.40;3.13;;;13.40;1.00;;;;;;6298983;28;20233;-54
2022/11/02 16:17:48;;;;;;;5.77;3.50;;;13.40;1.00;;;;;;6299456;28;20249;-54
2022/11/02 16:20:53;;;;;;;4.10;3.10;;;13.30;1.00;;;;;;6294882;28;20220;-55
2022/11/02 16:24:11;;;;;;;6.70;3.30;;;13.30;1.00;;;;;;6305211;28;20363;-55
2022/11/02 16:27:15;;;;;;;7.60;3.87;;;13.20;1.00;;;;;;6307224;28;20243;-54
2022/11/02 16:30:19;;;;;;;7.00;3.87;;;13.20;1.00;;;;;;6293155;28;20236;-54
2022/11/02 16:33:23;;;;;;;6.30;3.07;;;13.20;1.00;;;;;;6293881;28;20237;-54
2022/11/02 16:36:28;;;;;;;3.47;3.17;;;13.10;1.00;;;;;;6289174;28;20241;-54
2022/11/02 16:39:40;;;;;;;4.73;3.33;;;13.10;1.00;;;;;;6305721;28;20236;-54
2022/11/02 16:42:46;;;;;;;3.43;3.17;;;13.00;1.00;;;;;;6299309;28;20237;-54
2022/11/02 16:45:50;;;;;;;2.83;2.73;;;13.00;1.00;;;;;;6294826;28;20260;-54
2022/11/02 16:49:07;;;;;;;3.77;3.47;;;12.90;1.00;;;;;;6290415;28;20268;-54